createdAt,value
2018-06-13T00:01:20.680Z,2.10
2018-06-13T00:03:48.675Z,2.33
2018-06-13T00:06:17.751Z,2.07
2018-06-13T00:08:46.297Z,2.17
2018-06-13T00:11:14.284Z,2.33
2018-06-13T00:13:42.274Z,2.20
2018-06-13T00:16:10.288Z,2.97
2018-06-13T00:18:38.314Z,2.40
2018-06-13T00:21:06.521Z,2.60
2018-06-13T00:23:34.576Z,2.60
2018-06-13T00:26:03.313Z,2.53
2018-06-13T00:28:31.384Z,2.70
2018-06-13T00:30:59.591Z,2.50
2018-06-13T00:33:27.583Z,2.60
2018-06-13T00:35:55.881Z,2.60
2018-06-13T00:38:24.021Z,2.63
2018-06-13T00:40:52.004Z,2.30
2018-06-13T00:43:19.993Z,2.40
2018-06-13T00:45:48.005Z,2.60
2018-06-13T00:48:15.988Z,2.47
2018-06-13T00:50:44.183Z,2.30
2018-06-13T00:53:12.187Z,2.10
2018-06-13T00:55:45.694Z,2.33
2018-06-13T00:58:13.810Z,2.40
2018-06-13T01:00:42.919Z,2.33
2018-06-13T01:03:10.888Z,2.47
2018-06-13T01:05:38.901Z,2.20
2018-06-13T01:08:06.889Z,2.23
2018-06-13T01:10:34.882Z,2.07
2018-06-13T01:13:02.929Z,2.57
2018-06-13T01:15:31.600Z,2.43
2018-06-13T01:17:59.585Z,2.77
2018-06-13T01:20:27.598Z,3.17
2018-06-13T01:22:56.901Z,2.10
2018-06-13T01:25:24.949Z,1.93
2018-06-13T01:27:53.350Z,2.13
2018-06-13T01:30:21.796Z,1.97
2018-06-13T01:32:50.204Z,2.00
2018-06-13T01:35:18.265Z,2.40
2018-06-13T01:37:46.282Z,2.70
2018-06-13T01:40:14.286Z,2.00
2018-06-13T01:42:42.396Z,2.60
2018-06-13T01:45:10.385Z,2.30
2018-06-13T01:47:38.372Z,2.13
2018-06-13T01:50:09.414Z,2.40
2018-06-13T01:52:37.473Z,2.90
2018-06-13T01:55:05.648Z,2.70
2018-06-13T01:57:33.914Z,2.23
2018-06-13T02:00:03.101Z,2.90
2018-06-13T02:02:31.157Z,2.53
2018-06-13T02:04:59.160Z,3.10
2018-06-13T02:07:27.143Z,2.27
2018-06-13T02:09:55.112Z,2.57
2018-06-13T02:12:23.246Z,2.50
2018-06-13T02:14:51.237Z,2.60
2018-06-13T02:17:19.215Z,2.37
2018-06-13T02:19:47.225Z,2.97
2018-06-13T02:22:18.252Z,3.00
2018-06-13T02:24:46.317Z,3.10
2018-06-13T02:27:14.936Z,3.20
2018-06-13T02:29:42.920Z,3.30
2018-06-13T02:32:11.088Z,3.20
2018-06-13T02:34:39.091Z,3.27
2018-06-13T02:37:07.354Z,3.20
2018-06-13T02:39:35.418Z,3.43
2018-06-13T02:42:04.810Z,3.53
2018-06-13T02:44:32.845Z,4.10
2018-06-13T02:47:00.932Z,3.33
2018-06-13T02:49:29.045Z,3.50
2018-06-13T02:51:58.387Z,3.83
2018-06-13T02:54:26.424Z,3.87
2018-06-13T02:56:54.446Z,3.50
2018-06-13T02:59:22.429Z,3.33
2018-06-13T03:01:51.261Z,4.27
2018-06-13T03:04:19.409Z,3.13
2018-06-13T03:06:47.420Z,3.43
2018-06-13T03:09:15.659Z,3.73
2018-06-13T03:11:43.729Z,3.53
2018-06-13T03:14:12.111Z,3.20
2018-06-13T03:16:40.093Z,3.77
2018-06-13T03:19:08.203Z,3.53
2018-06-13T03:21:36.232Z,2.90
2018-06-13T03:24:07.425Z,3.40
2018-06-13T03:26:35.428Z,3.13
2018-06-13T03:29:03.409Z,3.47
2018-06-13T03:31:31.372Z,2.83
2018-06-13T03:33:59.379Z,2.97
2018-06-13T03:36:27.428Z,2.70
2018-06-13T03:38:55.714Z,3.20
2018-06-13T03:41:24.681Z,2.90
2018-06-13T03:43:52.654Z,2.60
2018-06-13T03:46:20.788Z,3.40
2018-06-13T03:48:48.808Z,2.73
2018-06-13T03:51:17.317Z,3.50
2018-06-13T03:53:45.813Z,3.17
2018-06-13T03:56:13.812Z,2.67
2018-06-13T03:58:41.819Z,2.77
2018-06-13T04:01:10.044Z,2.80
2018-06-13T04:03:38.437Z,3.47
2018-06-13T04:06:06.448Z,2.90
2018-06-13T04:08:34.431Z,3.07
2018-06-13T04:11:03.356Z,2.50
2018-06-13T04:13:31.347Z,2.40
2018-06-13T04:15:59.549Z,2.53
2018-06-13T04:18:27.569Z,2.40
2018-06-13T04:20:55.988Z,2.50
2018-06-13T04:23:24.008Z,2.60
2018-06-13T04:25:52.124Z,2.33
2018-06-13T04:28:20.105Z,2.60
2018-06-13T04:30:49.062Z,2.30
2018-06-13T04:33:17.228Z,2.80
2018-06-13T04:35:45.513Z,2.27
2018-06-13T04:38:14.416Z,2.90
2018-06-13T04:40:42.958Z,2.30
2018-06-13T04:43:11.069Z,2.43
2018-06-13T04:45:40.444Z,2.47
2018-06-13T04:48:09.164Z,2.97
2018-06-13T04:50:37.208Z,2.17
2018-06-13T04:53:05.797Z,2.70
2018-06-13T04:55:34.813Z,2.50
2018-06-13T04:58:04.444Z,2.30
2018-06-13T05:00:35.306Z,2.60
2018-06-13T05:03:04.444Z,2.47
2018-06-13T05:05:33.352Z,3.10
2018-06-13T05:08:01.597Z,2.10
2018-06-13T05:10:29.710Z,2.03
2018-06-13T05:12:57.820Z,2.30
2018-06-13T05:15:26.038Z,2.30
2018-06-13T05:17:54.324Z,2.20
2018-06-13T05:20:22.624Z,2.03
2018-06-13T05:22:52.325Z,2.53
2018-06-13T05:25:22.208Z,2.30
2018-06-13T05:47:39.673Z,2.43
2018-06-13T05:50:09.428Z,2.63
2018-06-13T05:52:38.032Z,3.03
2018-06-13T05:55:06.741Z,2.40
2018-06-13T05:57:35.301Z,1.93
2018-06-13T06:00:06.692Z,2.30
2018-06-13T06:02:35.606Z,2.57
2018-06-13T06:05:05.351Z,1.63
2018-06-13T06:07:33.494Z,2.43
2018-06-13T06:10:08.122Z,1.93
2018-06-13T06:12:36.341Z,1.60
2018-06-13T06:15:05.605Z,1.17
2018-06-13T06:17:33.683Z,1.60
2018-06-13T06:20:03.897Z,2.20
2018-06-13T06:22:31.915Z,2.03
2018-06-13T06:24:59.989Z,2.30
2018-06-13T06:27:28.110Z,1.73
2018-06-13T06:29:56.464Z,2.13
2018-06-13T06:32:24.479Z,2.23
2018-06-13T06:34:52.488Z,2.20
2018-06-13T06:37:20.484Z,2.00
2018-06-13T06:39:48.527Z,1.80
2018-06-13T06:42:18.277Z,2.00
2018-06-13T06:44:46.802Z,2.30
2018-06-13T06:47:14.894Z,2.73
2018-06-13T06:49:45.253Z,1.90
2018-06-13T06:52:17.065Z,2.03
2018-06-13T06:54:45.621Z,1.67
2018-06-13T06:57:14.566Z,1.80
2018-06-13T06:59:43.270Z,1.70
2018-06-13T07:08:17.513Z,1.50
2018-06-13T07:10:46.619Z,1.67
2018-06-13T07:13:14.615Z,1.93
2018-06-13T07:15:44.411Z,1.93
2018-06-13T07:18:12.753Z,1.67
2018-06-13T07:20:50.191Z,1.53
2018-06-13T07:23:18.210Z,2.10
2018-06-13T07:25:46.776Z,1.73
2018-06-13T07:28:14.794Z,1.67
2018-06-13T07:30:42.808Z,1.60
2018-06-13T07:33:11.825Z,1.97
2018-06-13T07:35:39.848Z,1.90
2018-06-13T07:38:09.182Z,2.47
2018-06-13T07:40:37.487Z,2.00
2018-06-13T07:43:05.878Z,3.60
2018-06-13T07:45:35.308Z,2.20
2018-06-13T07:48:05.332Z,1.90
2018-06-13T07:50:33.433Z,2.10
2018-06-13T07:53:02.537Z,2.10
2018-06-13T07:55:30.565Z,2.40
2018-06-13T07:57:58.647Z,2.00
2018-06-13T08:06:23.966Z,1.93
2018-06-13T08:08:52.070Z,1.80
2018-06-13T08:11:20.052Z,2.07
2018-06-13T08:13:48.037Z,2.07
2018-06-13T08:16:16.060Z,1.83
2018-06-13T08:18:44.057Z,1.97
2018-06-13T08:21:12.448Z,1.90
2018-06-13T08:33:45.330Z,2.30
2018-06-13T08:36:13.964Z,3.50
2018-06-13T08:38:42.509Z,2.77
2018-06-13T08:41:10.543Z,2.50
2018-06-13T08:43:38.521Z,2.13
2018-06-13T08:46:08.055Z,2.40
2018-06-13T08:48:36.112Z,2.63
2018-06-13T09:26:58.827Z,1.70
2018-06-13T09:29:28.829Z,1.67
2018-06-13T09:31:57.220Z,1.90
2018-06-13T09:34:25.262Z,1.20
2018-06-13T09:36:53.557Z,1.70
2018-06-13T09:42:54.090Z,1.50
2018-06-13T09:45:22.949Z,1.80
2018-06-13T09:47:50.991Z,1.57
2018-06-13T09:50:19.114Z,1.47
2018-06-13T09:52:49.624Z,1.90
2018-06-13T09:55:17.733Z,1.83
2018-06-13T09:57:45.755Z,2.10
2018-06-13T10:00:20.450Z,1.90
2018-06-13T10:02:48.763Z,1.50
2018-06-13T10:05:16.878Z,1.30
2018-06-13T10:07:45.696Z,1.40
2018-06-13T10:10:13.702Z,1.70
2018-06-13T10:12:44.253Z,1.60
2018-06-13T10:15:12.929Z,2.20
2018-06-13T10:17:41.320Z,1.40
2018-06-13T10:20:09.421Z,1.77
2018-06-13T10:22:37.480Z,1.60
2018-06-13T10:25:06.285Z,1.53
2018-06-13T10:27:38.276Z,1.60
2018-06-13T10:30:07.958Z,1.97
2018-06-13T10:32:36.520Z,1.73
2018-06-13T10:35:28.224Z,1.47
2018-06-13T10:40:43.741Z,1.70
2018-06-13T10:43:11.742Z,1.93
2018-06-13T10:45:42.015Z,1.93
2018-06-13T10:48:11.174Z,1.70
2018-06-13T10:50:39.237Z,1.70
2018-06-13T10:53:11.004Z,1.93
2018-06-13T10:55:40.108Z,1.57
2018-06-13T10:58:10.472Z,1.47
2018-06-13T11:00:39.748Z,1.50
2018-06-13T11:03:07.799Z,1.37
2018-06-13T11:05:38.610Z,1.20
2018-06-13T11:08:10.980Z,1.70
2018-06-13T11:13:41.089Z,1.30
2018-06-13T11:29:06.566Z,1.50
2018-06-13T11:31:34.630Z,1.60
2018-06-13T11:34:03.327Z,3.50
2018-06-13T11:36:31.349Z,2.47
2018-06-13T11:39:00.034Z,2.10
2018-06-13T11:41:28.094Z,2.03
2018-06-13T11:43:56.078Z,1.90
2018-06-13T11:46:26.811Z,1.70
2018-06-13T11:48:57.042Z,1.73
2018-06-13T11:51:27.925Z,2.20
2018-06-13T11:53:57.888Z,1.67
2018-06-13T11:56:29.143Z,1.50
2018-06-13T11:59:00.251Z,1.50
2018-06-13T12:01:31.299Z,2.27
2018-06-13T12:04:03.043Z,2.20
2018-06-13T12:06:31.178Z,1.80
2018-06-13T12:08:59.826Z,1.80
2018-06-13T12:11:28.025Z,1.30
2018-06-13T12:13:56.182Z,1.90
2018-06-13T12:16:27.207Z,1.57
2018-06-13T12:18:55.292Z,1.63
2018-06-13T12:21:23.456Z,1.70
2018-06-13T12:23:52.128Z,1.57
2018-06-13T12:26:20.154Z,1.53
2018-06-13T12:28:48.380Z,1.80
2018-06-13T12:31:16.374Z,1.53
2018-06-13T12:33:44.906Z,1.97
2018-06-13T12:36:14.469Z,2.00
2018-06-13T12:38:42.976Z,1.37
2018-06-13T12:41:11.253Z,1.50
2018-06-13T12:43:39.263Z,2.20
2018-06-13T12:46:08.312Z,2.00
2018-06-13T12:48:36.543Z,1.83
2018-06-13T12:51:04.903Z,1.87
2018-06-13T13:19:52.028Z,1.80
2018-06-13T13:22:23.407Z,1.40
2018-06-13T13:24:51.453Z,1.50
2018-06-13T13:27:19.517Z,1.70
2018-06-13T13:29:48.854Z,1.40
2018-06-13T13:32:18.568Z,1.60
2018-06-13T13:34:46.981Z,1.77
2018-06-13T13:37:15.175Z,1.30
2018-06-13T13:39:43.801Z,1.73
2018-06-13T13:42:13.301Z,1.37
2018-06-13T13:44:41.428Z,1.40
2018-06-13T13:47:11.782Z,1.53
2018-06-13T13:49:39.917Z,1.80
2018-06-13T13:52:09.604Z,1.60
2018-06-13T13:54:37.669Z,1.90
2018-06-13T13:57:06.745Z,1.60
2018-06-13T13:59:34.858Z,1.50
2018-06-13T14:02:06.168Z,1.60
2018-06-13T14:04:38.129Z,1.97
2018-06-13T14:07:06.903Z,1.70
2018-06-13T14:09:40.252Z,1.57
2018-06-13T14:12:10.722Z,1.43
2018-06-13T14:14:40.696Z,1.13
2018-06-13T14:17:09.880Z,1.23
2018-06-13T14:19:38.507Z,1.50
2018-06-13T14:22:08.192Z,1.20
2018-06-13T14:24:38.888Z,1.13
2018-06-13T14:27:07.604Z,1.80
2018-06-13T14:29:42.977Z,1.33
2018-06-13T14:32:12.450Z,1.43
2018-06-13T14:34:40.753Z,1.70
2018-06-13T14:37:10.012Z,1.43
2018-06-13T14:39:39.139Z,1.60
2018-06-13T14:42:08.774Z,1.37
2018-06-13T14:44:37.549Z,1.37
2018-06-13T14:47:06.759Z,1.43
2018-06-13T14:49:34.872Z,2.00
2018-06-13T14:52:04.446Z,1.10
2018-06-13T14:54:34.302Z,1.70
2018-06-13T14:57:04.753Z,1.10
2018-06-13T14:59:35.040Z,1.40
2018-06-13T15:02:05.733Z,1.67
2018-06-13T15:04:37.845Z,1.60
2018-06-13T15:07:07.747Z,1.83
2018-06-13T15:09:36.871Z,1.33
2018-06-13T15:12:05.669Z,1.60
2018-06-13T15:14:33.785Z,1.70
2018-06-13T15:17:03.555Z,1.63
2018-06-13T15:19:31.657Z,1.40
2018-06-13T15:22:00.521Z,1.10
2018-06-13T15:24:28.579Z,1.30
2018-06-13T15:26:56.626Z,1.30
2018-06-13T15:29:24.738Z,1.37
2018-06-13T15:31:56.661Z,1.33
2018-06-13T15:34:27.466Z,1.50
2018-06-13T15:36:57.092Z,1.43
2018-06-13T15:39:26.186Z,1.60
2018-06-13T15:41:54.777Z,1.50
2018-06-13T15:44:22.886Z,1.20
2018-06-13T15:46:51.677Z,1.57
2018-06-13T15:49:19.915Z,1.80
2018-06-13T15:51:48.343Z,1.47
2018-06-13T15:54:17.940Z,1.63
2018-06-13T15:56:47.578Z,1.73
2018-06-13T15:59:17.599Z,1.60
2018-06-13T16:05:02.960Z,1.60
2018-06-13T16:07:32.389Z,1.60
2018-06-13T16:10:00.488Z,1.70
2018-06-13T16:12:30.391Z,1.50
2018-06-13T16:14:59.215Z,1.23
2018-06-13T16:17:28.946Z,1.60
2018-06-13T16:19:56.990Z,1.50
2018-06-13T16:22:26.606Z,1.40
2018-06-13T16:24:57.155Z,1.70
2018-06-13T16:27:28.114Z,1.50
2018-06-13T16:29:57.005Z,1.87
2018-06-13T16:32:26.235Z,1.60
2018-06-13T16:34:55.221Z,1.10
2018-06-13T16:37:23.794Z,1.50
2018-06-13T16:39:52.330Z,1.50
2018-06-13T16:42:21.384Z,1.13
2018-06-13T16:44:49.648Z,1.53
2018-06-13T16:47:18.645Z,1.43
2018-06-13T16:49:47.736Z,1.30
2018-06-13T16:52:21.385Z,1.60
2018-06-13T16:54:55.511Z,1.07
2018-06-13T16:57:24.076Z,1.20
2018-06-13T16:59:53.162Z,1.50
2018-06-13T17:02:22.161Z,1.37
2018-06-13T17:04:51.810Z,1.20
2018-06-13T17:07:19.840Z,1.47
2018-06-13T17:09:49.774Z,1.40
2018-06-13T17:12:18.537Z,1.43
2018-06-13T17:14:46.660Z,1.43
2018-06-13T17:17:16.666Z,1.47
2018-06-13T17:19:45.444Z,1.60
2018-06-13T17:22:15.599Z,1.40
2018-06-13T17:24:44.128Z,1.30
2018-06-13T17:27:13.374Z,1.43
2018-06-13T17:35:26.051Z,1.47
2018-06-13T17:37:54.465Z,1.43
2018-06-13T17:40:23.169Z,1.80
2018-06-13T17:42:52.229Z,1.77
2018-06-13T17:45:20.306Z,1.80
2018-06-13T17:47:48.983Z,1.27
2018-06-13T17:50:17.118Z,1.90
2018-06-13T17:52:45.726Z,1.33
2018-06-13T17:55:13.823Z,1.57
2018-06-13T17:57:42.036Z,1.70
2018-06-13T18:00:11.700Z,1.60
2018-06-13T18:02:40.713Z,1.87
2018-06-13T18:05:09.406Z,1.33
2018-06-13T18:07:38.495Z,1.70
2018-06-13T18:10:07.825Z,1.50
2018-06-13T18:12:37.956Z,1.70
2018-06-13T18:24:47.167Z,1.93
2018-06-13T18:27:15.679Z,1.80
2018-06-13T18:29:44.114Z,1.77
2018-06-13T18:32:14.125Z,2.20
2018-06-13T18:34:42.408Z,1.53
2018-06-13T18:37:12.082Z,1.90
2018-06-13T18:39:42.393Z,3.00
2018-06-13T18:42:12.639Z,1.73
2018-06-13T18:44:41.310Z,1.97
2018-06-13T18:47:11.225Z,1.60
2018-06-13T18:49:39.691Z,2.03
2018-06-13T18:52:09.367Z,1.93
2018-06-13T18:54:39.069Z,1.90
2018-06-13T18:57:08.908Z,2.40
2018-06-13T18:59:37.445Z,1.97
2018-06-13T19:02:06.861Z,2.03
2018-06-13T19:04:35.405Z,2.07
2018-06-13T19:07:04.804Z,1.90
2018-06-13T19:09:33.196Z,2.00
2018-06-13T19:12:02.471Z,1.87
2018-06-13T19:14:32.134Z,2.20
2018-06-13T19:17:02.185Z,2.23
2018-06-13T19:19:30.731Z,1.70
2018-06-13T19:21:59.736Z,1.77
2018-06-13T19:24:30.528Z,1.87
2018-06-13T19:26:59.090Z,2.00
2018-06-13T19:29:27.758Z,1.93
2018-06-13T19:31:56.190Z,1.80
2018-06-13T19:34:25.087Z,2.60
2018-06-13T19:36:53.355Z,2.23
2018-06-13T19:39:22.252Z,2.10
2018-06-13T19:41:51.635Z,1.97
2018-06-13T19:44:22.065Z,2.40
2018-06-13T19:46:50.874Z,2.03
2018-06-13T19:49:20.527Z,2.20
2018-06-13T19:51:48.876Z,2.40
2018-06-13T19:54:22.648Z,2.27
2018-06-13T19:56:50.966Z,2.10
2018-06-13T19:59:19.526Z,2.47
2018-06-13T20:01:49.386Z,1.87
2018-06-13T20:04:23.912Z,2.47
2018-06-13T20:06:52.532Z,1.80
2018-06-13T20:09:21.781Z,2.47
2018-06-13T20:11:50.137Z,2.10
2018-06-13T20:14:23.772Z,2.00
2018-06-13T20:16:58.685Z,2.70
2018-06-13T20:19:33.339Z,1.90
2018-06-13T20:22:02.202Z,2.30
2018-06-13T20:24:30.678Z,2.80
2018-06-13T20:27:04.395Z,2.23
2018-06-13T20:29:38.325Z,2.37
2018-06-13T20:32:08.437Z,1.70
2018-06-13T20:34:37.457Z,1.90
2018-06-13T20:37:06.070Z,3.03
2018-06-13T20:39:37.072Z,2.13
2018-06-13T20:42:07.658Z,2.43
2018-06-13T20:44:36.207Z,2.43
2018-06-13T20:47:04.548Z,2.60
2018-06-13T20:49:33.150Z,2.63
2018-06-13T20:52:02.846Z,2.77
2018-06-13T20:54:31.268Z,3.10
2018-06-13T20:59:35.838Z,2.47
2018-06-13T21:02:04.918Z,2.30
2018-06-13T21:17:30.148Z,3.23
2018-06-13T21:19:58.426Z,2.40
2018-06-13T21:22:32.500Z,2.73
2018-06-13T21:25:01.081Z,3.17
2018-06-13T21:27:29.223Z,3.10
2018-06-13T21:29:57.690Z,2.77
2018-06-13T21:32:26.343Z,3.73
2018-06-13T21:34:55.228Z,2.90
2018-06-13T21:37:23.791Z,2.40
2018-06-13T21:39:51.844Z,2.83
2018-06-13T21:42:19.998Z,3.03
2018-06-13T21:44:48.774Z,3.63
2018-06-13T21:47:17.203Z,3.37
2018-06-13T21:49:46.572Z,3.70
2018-06-13T21:52:16.148Z,3.50
2018-06-13T21:54:45.763Z,2.83
2018-06-13T21:57:14.605Z,2.80
2018-06-13T21:59:42.874Z,3.10
2018-06-13T22:02:11.457Z,3.20
2018-06-13T22:04:39.525Z,3.57
2018-06-13T22:07:08.460Z,3.17
2018-06-13T22:09:36.769Z,2.83
2018-06-13T22:12:06.237Z,3.37
2018-06-13T22:14:34.371Z,3.27
2018-06-13T22:17:03.141Z,3.30
2018-06-13T22:19:32.227Z,3.33
2018-06-13T22:22:00.311Z,3.40
2018-06-13T22:24:28.359Z,3.20
2018-06-13T22:26:56.450Z,3.50
2018-06-13T22:29:24.574Z,3.40
2018-06-13T22:31:52.623Z,3.17
2018-06-13T22:34:20.842Z,3.93
2018-06-13T22:36:48.875Z,3.20
2018-06-13T22:39:16.961Z,3.87
2018-06-13T22:41:45.542Z,4.00
2018-06-13T22:44:14.090Z,4.23
2018-06-13T22:46:42.659Z,3.87
2018-06-13T22:49:10.624Z,4.27
2018-06-13T22:51:38.781Z,3.43
2018-06-13T22:54:07.641Z,3.83
2018-06-13T22:56:36.696Z,3.00
2018-06-13T22:59:05.482Z,2.83
2018-06-13T23:01:34.895Z,3.80
2018-06-13T23:04:05.789Z,3.50
2018-06-13T23:06:34.464Z,4.17
2018-06-13T23:09:03.217Z,3.43
2018-06-13T23:11:31.459Z,3.07
2018-06-13T23:14:00.958Z,3.20
2018-06-13T23:16:29.930Z,3.23
2018-06-13T23:18:58.670Z,3.70
2018-06-13T23:21:27.259Z,4.13
2018-06-13T23:23:56.424Z,3.80
2018-06-13T23:26:25.162Z,3.27
2018-06-13T23:28:54.414Z,4.10
2018-06-13T23:31:23.427Z,3.60
2018-06-13T23:33:52.030Z,3.67
2018-06-13T23:36:20.417Z,3.33
2018-06-13T23:38:49.354Z,3.87
2018-06-13T23:41:17.734Z,3.73
2018-06-13T23:43:47.048Z,3.03
2018-06-13T23:46:15.780Z,3.27
2018-06-13T23:48:43.815Z,3.27
2018-06-13T23:51:13.516Z,3.80
2018-06-13T23:53:41.769Z,2.97
2018-06-13T23:56:10.953Z,3.40
2018-06-13T23:58:39.031Z,3.07
